BCS932 LFMU-LOWI
Flight info
| Callsign | BCS932 |
|---|---|
| Flight time | 0h 55m |
| Altitude | 30000 |
| Route | MEN DCT GAMSA DCT MADEB MADEB1B |
| Aircraft | B463/M-SDFGIRWY/LB1 |
Departure
| Time | 2026-04-23 13:44 |
|---|---|
| Airport | Béziers Vias airport (LFMU) |
Arrival
| Time | 2026-04-23 14:39 |
|---|---|
| Airport | Innsbruck Airport (LOWI) |
| Time | Latitude | Longitude | Altitude | Speed | Heading |
|---|---|---|---|---|---|
| 2026-04-23 13:42 | 43.32368 | 3.34768 | 55 ft | 20 kts | 276° |
| 2026-04-23 13:42 | 43.32382 | 3.34563 | 59 ft | 24 kts | 275° |
| 2026-04-23 13:42 | 43.32390 | 3.34317 | 53 ft | 26 kts | 260° |
| 2026-04-23 13:42 | 43.32408 | 3.34186 | 55 ft | 17 kts | 66° |
| 2026-04-23 13:43 | 43.32400 | 3.34402 | 60 ft | 54 kts | 94° |
| 2026-04-23 13:43 | 43.32350 | 3.35285 | 70 ft | 130 kts | 99° |
| 2026-04-23 13:43 | 43.32277 | 3.36660 | 295 ft | 167 kts | 95° |
| 2026-04-23 13:43 | 43.32196 | 3.38412 | 635 ft | 195 kts | 96° |
| 2026-04-23 13:44 | 43.32077 | 3.40364 | 811 ft | 223 kts | 96° |
| 2026-04-23 13:44 | 43.32027 | 3.42280 | 1908 ft | 196 kts | 88° |
| 2026-04-23 13:44 | 43.32619 | 3.43866 | 3090 ft | 192 kts | 46° |
| 2026-04-23 13:44 | 43.33421 | 3.44650 | 2929 ft | 242 kts | 25° |
| 2026-04-23 13:45 | 43.35240 | 3.45193 | 2868 ft | 298 kts | 7° |
| 2026-04-23 13:45 | 43.37830 | 3.46376 | 4185 ft | 298 kts | 40° |
| 2026-04-23 13:45 | 43.39033 | 3.48452 | 5675 ft | 283 kts | 62° |
| 2026-04-23 13:45 | 43.39983 | 3.50814 | 6780 ft | 288 kts | 62° |
| 2026-04-23 13:46 | 43.40918 | 3.53195 | 7801 ft | 293 kts | 64° |
| 2026-04-23 13:46 | 43.41837 | 3.55671 | 8773 ft | 299 kts | 64° |
| 2026-04-23 13:46 | 43.42768 | 3.58203 | 9722 ft | 304 kts | 64° |
| 2026-04-23 13:46 | 43.43673 | 3.60653 | 10592 ft | 308 kts | 63° |
| 2026-04-23 13:47 | 43.44637 | 3.63266 | 11489 ft | 311 kts | 63° |
| 2026-04-23 13:47 | 43.45621 | 3.65871 | 12327 ft | 315 kts | 62° |
| 2026-04-23 13:47 | 43.46614 | 3.68465 | 13083 ft | 318 kts | 61° |
| 2026-04-23 13:47 | 43.48220 | 3.72636 | 14102 ft | 325 kts | 60° |
| 2026-04-23 13:48 | 43.49620 | 3.76217 | 14902 ft | 330 kts | 60° |
| 2026-04-23 13:48 | 43.52510 | 3.83654 | 16347 ft | 338 kts | 59° |
| 2026-04-23 13:48 | 43.53947 | 3.87346 | 16997 ft | 342 kts | 59° |
| 2026-04-23 13:48 | 43.57580 | 3.94132 | 18141 ft | 339 kts | 25° |
| 2026-04-23 13:49 | 43.62094 | 3.94672 | 19085 ft | 332 kts | 339° |
| 2026-04-23 13:49 | 43.65371 | 3.90516 | 19969 ft | 336 kts | 297° |
| 2026-04-23 13:49 | 43.66684 | 3.86778 | 20502 ft | 338 kts | 301° |
| 2026-04-23 13:49 | 43.69501 | 3.81831 | 21361 ft | 337 kts | 318° |
| 2026-04-23 13:50 | 43.73190 | 3.78005 | 22159 ft | 339 kts | 328° |
| 2026-04-23 13:50 | 43.77112 | 3.74948 | 22870 ft | 343 kts | 332° |
| 2026-04-23 13:50 | 43.81359 | 3.71963 | 23672 ft | 344 kts | 333° |
| 2026-04-23 13:50 | 43.85601 | 3.69069 | 24418 ft | 346 kts | 333° |
| 2026-04-23 13:51 | 43.89805 | 3.66226 | 25092 ft | 349 kts | 333° |
| 2026-04-23 13:51 | 43.94038 | 3.63296 | 25735 ft | 351 kts | 332° |
| 2026-04-23 13:51 | 43.98342 | 3.60281 | 26096 ft | 354 kts | 332° |
| 2026-04-23 13:51 | 44.02575 | 3.57318 | 26452 ft | 356 kts | 332° |
| 2026-04-23 13:52 | 44.06870 | 3.54302 | 26798 ft | 359 kts | 332° |
| 2026-04-23 13:52 | 44.11351 | 3.51177 | 27153 ft | 361 kts | 332° |
| 2026-04-23 13:52 | 44.15710 | 3.48118 | 27483 ft | 363 kts | 332° |
| 2026-04-23 13:52 | 44.20221 | 3.44948 | 27853 ft | 365 kts | 332° |
| 2026-04-23 13:53 | 44.24596 | 3.41867 | 28192 ft | 367 kts | 332° |
| 2026-04-23 13:53 | 44.29100 | 3.38694 | 28502 ft | 369 kts | 332° |
| 2026-04-23 13:53 | 44.33614 | 3.35508 | 28848 ft | 371 kts | 332° |
| 2026-04-23 13:53 | 44.38139 | 3.32316 | 29175 ft | 373 kts | 332° |
| 2026-04-23 13:54 | 44.42672 | 3.29107 | 29467 ft | 375 kts | 332° |
| 2026-04-23 13:54 | 44.51719 | 3.22715 | 29557 ft | 376 kts | 332° |
| 2026-04-23 13:54 | 44.56407 | 3.19907 | 29577 ft | 380 kts | 349° |
| 2026-04-23 13:55 | 44.61407 | 3.21338 | 29642 ft | 397 kts | 25° |
| 2026-04-23 13:55 | 44.65556 | 3.26382 | 29696 ft | 409 kts | 44° |
| 2026-04-23 13:55 | 44.68866 | 3.32551 | 29733 ft | 414 kts | 51° |
| 2026-04-23 13:56 | 44.75100 | 3.45885 | 29772 ft | 417 kts | 51° |
| 2026-04-23 13:56 | 44.81376 | 3.59116 | 29871 ft | 417 kts | 51° |
| 2026-04-23 13:57 | 44.87615 | 3.72179 | 30159 ft | 413 kts | 51° |
| 2026-04-23 13:57 | 44.93704 | 3.85141 | 30233 ft | 414 kts | 51° |
| 2026-04-23 13:58 | 45.00065 | 3.98633 | 30253 ft | 417 kts | 52° |
| 2026-04-23 13:58 | 45.06392 | 4.12068 | 30250 ft | 420 kts | 54° |
| 2026-04-23 13:59 | 45.12652 | 4.25536 | 30249 ft | 421 kts | 54° |
| 2026-04-23 13:59 | 45.18979 | 4.39213 | 30247 ft | 423 kts | 55° |
| 2026-04-23 14:00 | 45.24257 | 4.50683 | 30232 ft | 423 kts | 55° |
| 2026-04-23 14:00 | 45.31544 | 4.66516 | 30237 ft | 405 kts | 55° |
| 2026-04-23 14:00 | 45.34543 | 4.73013 | 30233 ft | 394 kts | 55° |
| 2026-04-23 14:01 | 45.37371 | 4.79195 | 30233 ft | 386 kts | 56° |
| 2026-04-23 14:01 | 45.42981 | 4.91614 | 30233 ft | 372 kts | 56° |
| 2026-04-23 14:02 | 45.48580 | 5.03955 | 30245 ft | 377 kts | 57° |
| 2026-04-23 14:02 | 45.54268 | 5.16468 | 30247 ft | 383 kts | 57° |
| 2026-04-23 14:03 | 45.59993 | 5.29198 | 30247 ft | 391 kts | 58° |
| 2026-04-23 14:03 | 45.65688 | 5.42019 | 30247 ft | 399 kts | 59° |
| 2026-04-23 14:04 | 45.71656 | 5.55305 | 30242 ft | 405 kts | 59° |
| 2026-04-23 14:04 | 45.77610 | 5.68701 | 30244 ft | 409 kts | 60° |
| 2026-04-23 14:05 | 45.83552 | 5.82302 | 30233 ft | 411 kts | 60° |
| 2026-04-23 14:05 | 45.89439 | 5.95663 | 30243 ft | 412 kts | 60° |
| 2026-04-23 14:06 | 45.95415 | 6.09321 | 30236 ft | 401 kts | 62° |
| 2026-04-23 14:06 | 46.01121 | 6.22466 | 30227 ft | 392 kts | 61° |
| 2026-04-23 14:07 | 46.06701 | 6.35354 | 30242 ft | 382 kts | 62° |
| 2026-04-23 14:07 | 46.14748 | 6.54139 | 30235 ft | 366 kts | 61° |
| 2026-04-23 14:08 | 46.19919 | 6.66216 | 30251 ft | 355 kts | 62° |
| 2026-04-23 14:08 | 46.24902 | 6.77926 | 30224 ft | 346 kts | 62° |
| 2026-04-23 14:09 | 46.29876 | 6.89647 | 30248 ft | 357 kts | 62° |
| 2026-04-23 14:09 | 46.35040 | 7.01818 | 30249 ft | 369 kts | 61° |
| 2026-04-23 14:10 | 46.40387 | 7.14516 | 30228 ft | 381 kts | 62° |
| 2026-04-23 14:10 | 46.45856 | 7.27530 | 30250 ft | 391 kts | 61° |
| 2026-04-23 14:11 | 46.51415 | 7.40870 | 30242 ft | 399 kts | 62° |
| 2026-04-23 14:11 | 46.57164 | 7.54737 | 30238 ft | 405 kts | 61° |
| 2026-04-23 14:12 | 46.62909 | 7.68665 | 30269 ft | 408 kts | 61° |
| 2026-04-23 14:12 | 46.68494 | 7.82334 | 30256 ft | 409 kts | 61° |
| 2026-04-23 14:13 | 46.74329 | 7.96569 | 30286 ft | 404 kts | 62° |
| 2026-04-23 14:13 | 46.79781 | 8.10059 | 30266 ft | 398 kts | 61° |
| 2026-04-23 14:14 | 46.85241 | 8.23635 | 30270 ft | 393 kts | 61° |
| 2026-04-23 14:14 | 46.90670 | 8.37184 | 30253 ft | 388 kts | 61° |
| 2026-04-23 14:15 | 46.96000 | 8.50501 | 30290 ft | 384 kts | 61° |
| 2026-04-23 14:15 | 47.01219 | 8.63579 | 30296 ft | 381 kts | 61° |
| 2026-04-23 14:16 | 47.06382 | 8.76646 | 30294 ft | 380 kts | 61° |
| 2026-04-23 14:16 | 47.08971 | 8.83162 | 30282 ft | 358 kts | 61° |
| 2026-04-23 14:16 | 47.11325 | 8.89136 | 30280 ft | 336 kts | 62° |
| 2026-04-23 14:17 | 47.13593 | 8.94924 | 29565 ft | 335 kts | 61° |
| 2026-04-23 14:17 | 47.15913 | 9.00812 | 28980 ft | 332 kts | 60° |
| 2026-04-23 14:17 | 47.18121 | 9.06419 | 28321 ft | 329 kts | 61° |
| 2026-04-23 14:17 | 47.20378 | 9.12185 | 27685 ft | 326 kts | 60° |
| 2026-04-23 14:18 | 47.22536 | 9.17685 | 27072 ft | 323 kts | 60° |
| 2026-04-23 14:18 | 47.24725 | 9.23288 | 26385 ft | 321 kts | 60° |
| 2026-04-23 14:18 | 47.26859 | 9.28811 | 25727 ft | 319 kts | 60° |
| 2026-04-23 14:18 | 47.28997 | 9.34395 | 25044 ft | 317 kts | 60° |
| 2026-04-23 14:19 | 47.31128 | 9.39914 | 24392 ft | 314 kts | 60° |
| 2026-04-23 14:19 | 47.33228 | 9.45297 | 23717 ft | 312 kts | 59° |
| 2026-04-23 14:19 | 47.35337 | 9.50772 | 23036 ft | 308 kts | 60° |
| 2026-04-23 14:19 | 47.37394 | 9.56141 | 22407 ft | 305 kts | 59° |
| 2026-04-23 14:20 | 47.39269 | 9.61038 | 21799 ft | 303 kts | 60° |
| 2026-04-23 14:20 | 47.40853 | 9.66699 | 21129 ft | 304 kts | 86° |
| 2026-04-23 14:20 | 47.40164 | 9.72750 | 20527 ft | 306 kts | 99° |
| 2026-04-23 14:20 | 47.39239 | 9.78630 | 19978 ft | 304 kts | 99° |
| 2026-04-23 14:21 | 47.38331 | 9.84603 | 19473 ft | 301 kts | 98° |
| 2026-04-23 14:21 | 47.37494 | 9.90527 | 18963 ft | 298 kts | 97° |
| 2026-04-23 14:21 | 47.36721 | 9.96399 | 18418 ft | 296 kts | 97° |
| 2026-04-23 14:21 | 47.35963 | 10.02326 | 17932 ft | 293 kts | 97° |
| 2026-04-23 14:22 | 47.35213 | 10.08003 | 17491 ft | 292 kts | 97° |
| 2026-04-23 14:22 | 47.34436 | 10.13827 | 17028 ft | 290 kts | 97° |
| 2026-04-23 14:22 | 47.33938 | 10.17582 | 16771 ft | 289 kts | 97° |
| 2026-04-23 14:23 | 47.33440 | 10.21325 | 16816 ft | 289 kts | 97° |
| 2026-04-23 14:23 | 47.32654 | 10.27166 | 17106 ft | 291 kts | 97° |
| 2026-04-23 14:23 | 47.31857 | 10.32905 | 17396 ft | 293 kts | 97° |
| 2026-04-23 14:23 | 47.31088 | 10.38489 | 17672 ft | 293 kts | 97° |
| 2026-04-23 14:24 | 47.30285 | 10.44397 | 17965 ft | 293 kts | 97° |
| 2026-04-23 14:24 | 47.29521 | 10.49937 | 18148 ft | 295 kts | 97° |
| 2026-04-23 14:24 | 47.28704 | 10.55696 | 18339 ft | 296 kts | 97° |
| 2026-04-23 14:24 | 47.28851 | 10.61511 | 18565 ft | 289 kts | 77° |
| 2026-04-23 14:25 | 47.29543 | 10.67204 | 18727 ft | 290 kts | 76° |
| 2026-04-23 14:25 | 47.30257 | 10.72933 | 18896 ft | 292 kts | 77° |
| 2026-04-23 14:25 | 47.30940 | 10.78722 | 19115 ft | 293 kts | 77° |
| 2026-04-23 14:25 | 47.31582 | 10.84451 | 19341 ft | 294 kts | 78° |
| 2026-04-23 14:26 | 47.32235 | 10.90356 | 19303 ft | 299 kts | 77° |
| 2026-04-23 14:26 | 47.32860 | 10.96205 | 19570 ft | 294 kts | 78° |
| 2026-04-23 14:26 | 47.33504 | 11.02187 | 19526 ft | 297 kts | 78° |
| 2026-04-23 14:26 | 47.34129 | 11.08015 | 19744 ft | 295 kts | 78° |
| 2026-04-23 14:27 | 47.34760 | 11.14001 | 19866 ft | 294 kts | 77° |
| 2026-04-23 14:27 | 47.35380 | 11.19713 | 19539 ft | 294 kts | 77° |
| 2026-04-23 14:27 | 47.36002 | 11.25583 | 19205 ft | 293 kts | 78° |
| 2026-04-23 14:27 | 47.36635 | 11.31483 | 18923 ft | 292 kts | 78° |
| 2026-04-23 14:28 | 47.36938 | 11.34384 | 18784 ft | 291 kts | 78° |
| 2026-04-23 14:28 | 47.37244 | 11.37273 | 18675 ft | 291 kts | 78° |
| 2026-04-23 14:28 | 47.37551 | 11.40148 | 18545 ft | 290 kts | 78° |
| 2026-04-23 14:28 | 47.37851 | 11.43030 | 18431 ft | 290 kts | 77° |
| 2026-04-23 14:29 | 47.38084 | 11.45922 | 18264 ft | 290 kts | 84° |
| 2026-04-23 14:29 | 47.38077 | 11.48792 | 17872 ft | 290 kts | 88° |
| 2026-04-23 14:29 | 47.38014 | 11.51657 | 17458 ft | 288 kts | 88° |
| 2026-04-23 14:29 | 47.37945 | 11.54463 | 17106 ft | 287 kts | 88° |
| 2026-04-23 14:30 | 47.37862 | 11.57396 | 16700 ft | 286 kts | 88° |
| 2026-04-23 14:30 | 47.37814 | 11.60233 | 16332 ft | 285 kts | 87° |
| 2026-04-23 14:30 | 47.37777 | 11.63018 | 16009 ft | 282 kts | 86° |
| 2026-04-23 14:30 | 47.37750 | 11.65866 | 15623 ft | 282 kts | 86° |
| 2026-04-23 14:31 | 47.37733 | 11.68666 | 15214 ft | 282 kts | 85° |
| 2026-04-23 14:31 | 47.37711 | 11.71505 | 14824 ft | 279 kts | 86° |
| 2026-04-23 14:31 | 47.37684 | 11.74367 | 14406 ft | 279 kts | 86° |
| 2026-04-23 14:31 | 47.37663 | 11.77166 | 14044 ft | 278 kts | 86° |
| 2026-04-23 14:32 | 47.37451 | 11.79957 | 13654 ft | 283 kts | 104° |
| 2026-04-23 14:32 | 47.36447 | 11.82315 | 13301 ft | 295 kts | 132° |
| 2026-04-23 14:32 | 47.34660 | 11.83909 | 13004 ft | 308 kts | 161° |
| 2026-04-23 14:32 | 47.32584 | 11.84210 | 13163 ft | 310 kts | 185° |
| 2026-04-23 14:33 | 47.30621 | 11.83286 | 13168 ft | 309 kts | 211° |
| 2026-04-23 14:33 | 47.29046 | 11.81277 | 13100 ft | 305 kts | 235° |
| 2026-04-23 14:33 | 47.28175 | 11.78700 | 12692 ft | 300 kts | 260° |
| 2026-04-23 14:33 | 47.28109 | 11.75658 | 12396 ft | 287 kts | 287° |
| 2026-04-23 14:34 | 47.28892 | 11.73097 | 12117 ft | 275 kts | 309° |
| 2026-04-23 14:34 | 47.29886 | 11.70857 | 11816 ft | 276 kts | 304° |
| 2026-04-23 14:34 | 47.30687 | 11.68338 | 11516 ft | 278 kts | 294° |
| 2026-04-23 14:34 | 47.31160 | 11.65684 | 11258 ft | 279 kts | 286° |
| 2026-04-23 14:35 | 47.31419 | 11.62951 | 11279 ft | 270 kts | 275° |
| 2026-04-23 14:35 | 47.31256 | 11.60274 | 11223 ft | 257 kts | 262° |
| 2026-04-23 14:35 | 47.30832 | 11.57899 | 11145 ft | 247 kts | 256° |
| 2026-04-23 14:35 | 47.30279 | 11.55550 | 10830 ft | 238 kts | 253° |
| 2026-04-23 14:36 | 47.29897 | 11.54156 | 10323 ft | 222 kts | 251° |
| 2026-04-23 14:36 | 47.29124 | 11.51511 | 9155 ft | 202 kts | 250° |
| 2026-04-23 14:36 | 47.28593 | 11.49724 | 8390 ft | 189 kts | 249° |
| 2026-04-23 14:36 | 47.28106 | 11.48076 | 7588 ft | 178 kts | 249° |
| 2026-04-23 14:37 | 47.27647 | 11.46483 | 6781 ft | 169 kts | 250° |
| 2026-04-23 14:37 | 47.27230 | 11.44997 | 6122 ft | 157 kts | 252° |
| 2026-04-23 14:37 | 47.27041 | 11.44045 | 5685 ft | 153 kts | 258° |
| 2026-04-23 14:37 | 47.26785 | 11.42059 | 4749 ft | 148 kts | 263° |
| 2026-04-23 14:38 | 47.26669 | 11.41060 | 4018 ft | 161 kts | 261° |
| 2026-04-23 14:38 | 47.26466 | 11.39426 | 2947 ft | 164 kts | 262° |
| 2026-04-23 14:38 | 47.26369 | 11.37846 | 2243 ft | 157 kts | 263° |
| 2026-04-23 14:38 | 47.26217 | 11.36381 | 2027 ft | 140 kts | 262° |
| 2026-04-23 14:39 | 47.26080 | 11.35006 | 1897 ft | 127 kts | 261° |
| 2026-04-23 14:39 | 47.25963 | 11.33902 | 1907 ft | 92 kts | 261° |
| 2026-04-23 14:39 | 47.25910 | 11.33207 | 1909 ft | 35 kts | 264° |
| 2026-04-23 14:39 | 47.25876 | 11.33236 | 1910 ft | 21 kts | 39° |
| 2026-04-23 14:40 | 47.25916 | 11.33414 | 1904 ft | 19 kts | 83° |
| 2026-04-23 14:40 | 47.25924 | 11.33622 | 1915 ft | 23 kts | 106° |
| 2026-04-23 14:40 | 47.25832 | 11.33838 | 1914 ft | 28 kts | 123° |
| 2026-04-23 14:40 | 47.25782 | 11.34160 | 1898 ft | 37 kts | 84° |
| 2026-04-23 14:41 | 47.25824 | 11.34535 | 1895 ft | 37 kts | 82° |
| 2026-04-23 14:41 | 47.25826 | 11.34806 | 1899 ft | 17 kts | 130° |
| 2026-04-23 14:41 | 47.25796 | 11.34825 | 1900 ft | 0 kts | 163° |